createdAt,value
2023-04-23T00:00:35.343Z,97530.56
2023-04-23T00:03:38.170Z,97529.59
2023-04-23T00:06:43.069Z,97535.19
2023-04-23T00:09:45.108Z,97526.66
2023-04-23T00:12:47.025Z,97520.03
2023-04-23T00:15:48.938Z,97535.69
2023-04-23T00:18:51.132Z,97530.16
2023-04-23T00:21:54.601Z,97527.22
2023-04-23T00:24:56.413Z,97523.78
2023-04-23T00:27:58.125Z,97529.81
2023-04-23T00:30:59.837Z,97526.09
2023-04-23T00:34:01.577Z,97524.69
2023-04-23T00:37:06.947Z,97527.06
2023-04-23T00:40:09.074Z,97538.34
2023-04-23T00:43:11.666Z,97527.09
2023-04-23T00:46:13.918Z,97527.34
2023-04-23T00:49:16.002Z,97525.06
2023-04-23T00:52:19.023Z,97531.63
2023-04-23T00:55:21.359Z,97522.63
2023-04-23T00:58:23.287Z,97529.06
2023-04-23T01:01:26.104Z,97521.78
2023-04-23T01:04:29.569Z,97524.69
2023-04-23T01:07:34.401Z,97519.75
2023-04-23T01:10:36.224Z,97519.03
2023-04-23T01:13:38.131Z,97512.38
2023-04-23T01:16:39.800Z,97509.91
2023-04-23T01:19:41.965Z,97513.00
2023-04-23T01:22:46.003Z,97518.56
2023-04-23T01:25:47.840Z,97515.13
2023-04-23T01:28:50.005Z,97522.81
2023-04-23T01:31:51.675Z,97530.84
2023-04-23T01:34:54.653Z,97519.63
2023-04-23T01:37:59.172Z,97522.50
2023-04-23T01:41:01.020Z,97534.38
2023-04-23T01:44:02.909Z,97527.19
2023-04-23T01:47:06.982Z,97524.84
2023-04-23T01:50:09.484Z,97526.78
2023-04-23T01:53:12.755Z,97521.94
2023-04-23T01:56:15.813Z,97527.41
2023-04-23T01:59:17.451Z,97532.53
2023-04-23T02:02:19.835Z,97529.97
2023-04-23T02:05:21.825Z,97531.22
2023-04-23T02:08:24.961Z,97531.97
2023-04-23T02:11:29.499Z,97533.72
2023-04-23T02:14:31.497Z,97542.75
2023-04-23T02:17:33.214Z,97532.63
2023-04-23T02:20:38.817Z,97529.81
2023-04-23T02:23:42.335Z,97531.16
2023-04-23T02:26:44.097Z,97543.09
2023-04-23T02:29:45.974Z,97536.47
2023-04-23T02:32:47.706Z,97533.13
2023-04-23T02:35:49.279Z,97544.44
2023-04-23T02:38:53.110Z,97540.13
2023-04-23T02:41:54.800Z,97543.00
2023-04-23T02:44:56.992Z,97543.22
2023-04-23T02:47:58.624Z,97539.53
2023-04-23T02:51:00.507Z,97538.94
2023-04-23T02:54:04.161Z,97543.72
2023-04-23T02:57:06.275Z,97557.28
2023-04-23T03:00:09.152Z,97555.63
2023-04-23T03:03:16.129Z,97558.13
2023-04-23T03:06:18.083Z,97556.59
2023-04-23T03:09:21.386Z,97564.69
2023-04-23T03:12:23.287Z,97566.41
2023-04-23T03:15:25.689Z,97568.31
2023-04-23T03:18:27.397Z,97574.53
2023-04-23T03:21:30.243Z,97574.41
2023-04-23T03:24:33.663Z,97575.75
2023-04-23T03:27:35.470Z,97575.09
2023-04-23T03:30:37.269Z,97580.72
2023-04-23T03:33:39.160Z,97583.00
2023-04-23T03:36:41.092Z,97584.50
2023-04-23T03:39:44.404Z,97579.66
2023-04-23T03:42:46.977Z,97593.66
2023-04-23T03:45:50.832Z,97585.84
2023-04-23T03:48:53.215Z,97585.25
2023-04-23T03:52:00.925Z,97592.50
2023-04-23T03:55:07.340Z,97596.13
2023-04-23T03:58:15.452Z,97592.69
2023-04-23T04:01:19.797Z,97604.31
2023-04-23T04:04:21.809Z,97593.91
2023-04-23T04:07:24.979Z,97600.41
2023-04-23T04:10:28.162Z,97609.25
2023-04-23T04:13:29.823Z,97598.78
2023-04-23T04:16:31.531Z,97609.50
2023-04-23T04:19:33.261Z,97608.84
2023-04-23T04:22:35.849Z,97608.44
2023-04-23T04:25:41.796Z,97605.78
2023-04-23T04:28:45.475Z,97601.50
2023-04-23T04:31:47.284Z,97604.34
2023-04-23T04:34:50.093Z,97614.06
2023-04-23T04:37:54.373Z,97607.13
2023-04-23T04:41:00.320Z,97606.53
2023-04-23T04:44:02.135Z,97610.22
2023-04-23T04:47:04.079Z,97615.47
2023-04-23T04:50:06.830Z,97607.56
2023-04-23T04:53:08.447Z,97617.47
2023-04-23T04:56:11.438Z,97615.00
2023-04-23T04:59:13.101Z,97618.00
2023-04-23T05:02:14.824Z,97625.34
2023-04-23T05:05:17.741Z,97609.59
2023-04-23T05:08:21.840Z,97617.59
2023-04-23T05:11:24.835Z,97612.34
2023-04-23T05:14:26.813Z,97619.69
2023-04-23T05:17:28.436Z,97615.47
2023-04-23T05:20:30.520Z,97615.56
2023-04-23T05:23:32.250Z,97615.56
2023-04-23T05:26:35.423Z,97619.88
2023-04-23T05:29:37.209Z,97619.88
2023-04-23T05:32:39.321Z,97625.19
2023-04-23T05:35:41.168Z,97622.25
2023-04-23T05:38:43.305Z,97622.25
2023-04-23T05:41:46.516Z,97618.81
2023-04-23T05:44:48.216Z,97615.41
2023-04-23T05:47:49.896Z,97615.88
2023-04-23T05:50:53.798Z,97622.75
2023-04-23T05:53:55.503Z,97613.81
2023-04-23T05:56:59.083Z,97616.38
2023-04-23T06:00:00.851Z,97622.38
2023-04-23T06:03:02.686Z,97616.00
2023-04-23T06:06:04.411Z,97618.50
2023-04-23T06:09:06.942Z,97617.78
2023-04-23T06:12:09.928Z,97621.63
2023-04-23T06:15:11.817Z,97633.03
2023-04-23T06:18:13.381Z,97636.66
2023-04-23T06:21:15.204Z,97631.13
2023-04-23T06:24:16.994Z,97628.00
2023-04-23T06:27:20.107Z,97628.31
2023-04-23T06:30:25.032Z,97622.91
2023-04-23T06:33:27.763Z,97625.69
2023-04-23T06:36:29.946Z,97624.91
2023-04-23T06:39:31.574Z,97627.50
2023-04-23T06:42:34.743Z,97630.81
2023-04-23T06:45:56.883Z,97626.91
2023-04-23T06:48:58.492Z,97625.84
2023-04-23T06:52:00.239Z,97626.81
2023-04-23T06:55:01.944Z,97622.31
2023-04-23T06:58:10.055Z,97618.75
2023-04-23T07:01:12.329Z,97612.88
2023-04-23T07:04:14.108Z,97611.22
2023-04-23T07:07:16.273Z,97618.72
2023-04-23T07:10:18.324Z,97617.78
2023-04-23T07:13:21.370Z,97617.13
2023-04-23T07:16:24.278Z,97607.03
2023-04-23T07:19:26.163Z,97603.63
2023-04-23T07:22:30.444Z,97605.16
2023-04-23T07:25:32.624Z,97605.47
2023-04-23T07:28:35.698Z,97603.69
2023-04-23T07:31:37.675Z,97589.91
2023-04-23T07:34:39.932Z,97587.69
2023-04-23T07:37:41.909Z,97590.25
2023-04-23T07:40:43.549Z,97589.84
2023-04-23T07:43:46.688Z,97588.34
2023-04-23T07:46:48.699Z,97592.41
2023-04-23T07:49:50.612Z,97591.13
2023-04-23T07:52:53.067Z,97584.56
2023-04-23T07:55:55.792Z,97578.66
2023-04-23T07:58:58.785Z,97583.25
2023-04-23T08:02:00.393Z,97578.19
2023-04-23T08:05:02.300Z,97573.97
2023-04-23T08:08:04.125Z,97568.84
2023-04-23T08:11:05.796Z,97567.31
2023-04-23T08:14:09.063Z,97571.47
2023-04-23T08:17:10.645Z,97565.00
2023-04-23T08:20:12.438Z,97572.34
2023-04-23T08:23:14.170Z,97567.94
2023-04-23T08:26:15.792Z,97563.69
2023-04-23T08:29:18.803Z,97567.38
2023-04-23T08:32:20.773Z,97563.84
2023-04-23T08:35:23.259Z,97562.34
2023-04-23T08:38:24.923Z,97556.66
2023-04-23T08:41:34.143Z,97549.25
2023-04-23T08:44:38.165Z,97547.16
2023-04-23T08:47:42.962Z,97549.63
2023-04-23T08:50:45.038Z,97554.03
2023-04-23T08:53:50.738Z,97561.47
2023-04-23T08:56:52.572Z,97556.22
2023-04-23T08:59:55.563Z,97564.28
2023-04-23T09:02:57.557Z,97547.47
2023-04-23T09:05:59.354Z,97552.09
2023-04-23T09:09:01.164Z,97566.38
2023-04-23T09:12:02.830Z,97560.75
2023-04-23T09:15:10.940Z,97550.66
2023-04-23T09:18:12.554Z,97553.81
2023-04-23T09:21:14.676Z,97554.06
2023-04-23T09:24:18.003Z,97547.09
2023-04-23T09:27:23.498Z,97535.38
2023-04-23T09:30:27.526Z,97533.13
2023-04-23T09:33:29.324Z,97528.22
2023-04-23T09:36:32.313Z,97521.94
2023-04-23T09:39:34.720Z,97528.38
2023-04-23T09:42:37.147Z,97527.78
2023-04-23T09:45:49.370Z,97516.16
2023-04-23T09:48:52.848Z,97512.81
2023-04-23T09:51:54.648Z,97511.19
2023-04-23T09:54:56.701Z,97516.53
2023-04-23T09:57:59.155Z,97518.47
2023-04-23T10:01:08.264Z,97505.00
2023-04-23T10:04:16.232Z,97502.69
2023-04-23T10:07:20.393Z,97504.13
2023-04-23T10:10:22.688Z,97509.41
2023-04-23T10:13:24.565Z,97512.28
2023-04-23T10:16:32.977Z,97508.75
2023-04-23T10:19:45.090Z,97516.97
2023-04-23T10:22:47.597Z,97522.91
2023-04-23T10:25:50.340Z,97508.25
2023-04-23T10:28:54.250Z,97509.53
2023-04-23T10:31:58.603Z,97509.97
2023-04-23T10:35:00.515Z,97510.63
2023-04-23T10:38:03.125Z,97514.22
2023-04-23T10:41:05.858Z,97510.72
2023-04-23T10:44:12.150Z,97510.97
2023-04-23T10:47:16.318Z,97499.50
2023-04-23T10:50:19.041Z,97507.94
2023-04-23T10:53:23.938Z,97505.41
2023-04-23T10:56:27.838Z,97503.31
2023-04-23T10:59:30.567Z,97499.19
2023-04-23T11:02:47.189Z,97490.78
2023-04-23T11:05:48.933Z,97492.47
2023-04-23T11:08:54.525Z,97493.34
2023-04-23T11:11:58.154Z,97488.56
2023-04-23T11:15:00.175Z,97489.56
2023-04-23T11:18:03.565Z,97479.38
2023-04-23T11:21:05.485Z,97483.81
2023-04-23T11:24:07.571Z,97484.00
2023-04-23T11:27:11.874Z,97467.19
2023-04-23T11:30:14.672Z,97471.94
2023-04-23T11:33:17.965Z,97459.38
2023-04-23T11:36:19.771Z,97445.41
2023-04-23T11:39:21.805Z,97456.47
2023-04-23T11:42:23.462Z,97455.47
2023-04-23T11:45:25.832Z,97465.41
2023-04-23T11:48:29.261Z,97449.44
2023-04-23T11:51:31.084Z,97450.56
2023-04-23T11:54:33.575Z,97452.16
2023-04-23T11:57:36.158Z,97455.63
2023-04-23T12:00:38.138Z,97452.84
2023-04-23T12:06:45.121Z,97483.25
2023-04-23T12:09:49.365Z,97492.78
2023-04-23T12:12:52.119Z,97488.22
2023-04-23T12:15:56.711Z,97492.06
2023-04-23T12:19:00.893Z,97501.28
2023-04-23T12:22:03.783Z,97485.41
2023-04-23T12:25:08.541Z,97490.25
2023-04-23T12:28:10.481Z,97511.91
2023-04-23T12:31:18.806Z,97515.34
2023-04-23T12:34:22.177Z,97513.34
2023-04-23T12:37:25.611Z,97513.53
2023-04-23T12:40:27.582Z,97520.66
2023-04-23T12:43:29.824Z,97509.69
2023-04-23T12:46:31.720Z,97498.34
2023-04-23T12:49:36.486Z,97487.00
2023-04-23T12:52:38.584Z,97489.19
2023-04-23T12:55:40.411Z,97494.84
2023-04-23T12:58:42.589Z,97489.66
2023-04-23T13:01:44.538Z,97473.25
2023-04-23T13:04:48.253Z,97478.38
2023-04-23T13:07:50.480Z,97463.00
2023-04-23T13:10:52.324Z,97452.06
2023-04-23T13:13:54.294Z,97444.97
2023-04-23T13:16:58.060Z,97432.28
2023-04-23T13:20:01.204Z,97439.69
2023-04-23T13:23:03.235Z,97422.38
2023-04-23T13:26:06.734Z,97415.03
2023-04-23T13:29:08.379Z,97408.56
2023-04-23T13:32:10.276Z,97412.22
2023-04-23T13:35:14.632Z,97406.25
2023-04-23T13:38:16.900Z,97402.50
2023-04-23T13:41:18.568Z,97402.97
2023-04-23T13:44:20.259Z,97388.81
2023-04-23T13:47:22.037Z,97383.75
2023-04-23T13:50:25.373Z,97368.63
2023-04-23T13:53:27.494Z,97365.66
2023-04-23T13:56:30.916Z,97363.69
2023-04-23T13:59:32.704Z,97362.34
2023-04-23T14:02:35.043Z,97352.16
2023-04-23T14:05:38.915Z,97349.06
2023-04-23T14:08:40.998Z,97338.72
2023-04-23T14:11:42.871Z,97337.41
2023-04-23T14:14:44.557Z,97328.19
2023-04-23T14:17:47.350Z,97325.25
2023-04-23T14:20:51.383Z,97324.88
2023-04-23T14:23:55.952Z,97316.38
2023-04-23T14:26:57.574Z,97312.28
2023-04-23T14:30:03.137Z,97305.19
2023-04-23T14:33:04.872Z,97306.16
2023-04-23T14:36:08.248Z,97303.16
2023-04-23T14:39:12.657Z,97298.47
2023-04-23T14:42:14.382Z,97300.69
2023-04-23T14:45:18.152Z,97306.34
2023-04-23T14:48:19.872Z,97290.22
2023-04-23T14:51:24.303Z,97292.72
2023-04-23T14:54:26.127Z,97280.47
2023-04-23T14:57:28.247Z,97284.31
2023-04-23T15:00:30.536Z,97282.78
2023-04-23T15:03:33.281Z,97274.22
2023-04-23T15:06:37.214Z,97286.38
2023-04-23T15:09:39.104Z,97283.38
2023-04-23T15:12:48.823Z,97283.22
2023-04-23T15:15:51.544Z,97265.22
2023-04-23T15:18:53.185Z,97270.28
2023-04-23T15:21:56.223Z,97264.78
2023-04-23T15:24:57.984Z,97264.38
2023-04-23T15:28:00.272Z,97269.16
2023-04-23T15:31:01.934Z,97257.25
2023-04-23T15:34:06.322Z,97264.78
2023-04-23T15:37:09.408Z,97269.78
2023-04-23T15:40:11.523Z,97263.69
2023-04-23T15:43:13.615Z,97273.00
2023-04-23T15:46:15.263Z,97259.72
2023-04-23T15:49:16.898Z,97261.66
2023-04-23T15:52:20.191Z,97267.00
2023-04-23T15:55:21.862Z,97255.94
2023-04-23T15:58:23.413Z,97245.69
2023-04-23T16:01:27.185Z,97246.47
2023-04-23T16:04:30.122Z,97234.56
2023-04-23T16:07:33.208Z,97230.41
2023-04-23T16:10:34.913Z,97226.16
2023-04-23T16:13:46.904Z,97218.81
2023-04-23T16:16:49.216Z,97216.75
2023-04-23T16:19:50.930Z,97211.91
2023-04-23T16:22:57.161Z,97218.72
2023-04-23T16:25:58.937Z,97215.06
2023-04-23T16:32:05.519Z,97205.50
2023-04-23T16:35:07.938Z,97199.69
2023-04-23T16:38:11.360Z,97199.69
2023-04-23T16:41:15.510Z,97198.72
2023-04-23T16:44:17.382Z,97207.47
2023-04-23T16:47:19.058Z,97186.28
2023-04-23T16:50:20.843Z,97180.66
2023-04-23T16:53:23.711Z,97174.31
2023-04-23T16:56:25.505Z,97171.53
2023-04-23T16:59:28.560Z,97174.22
2023-04-23T17:02:30.372Z,97174.94
2023-04-23T17:05:34.188Z,97165.66
2023-04-23T17:08:37.319Z,97155.22
2023-04-23T17:11:38.915Z,97170.19
2023-04-23T17:14:40.622Z,97160.66
2023-04-23T17:17:42.523Z,97156.28
2023-04-23T17:20:44.203Z,97155.84
2023-04-23T17:23:47.392Z,97148.28
2023-04-23T17:26:49.300Z,97138.31
2023-04-23T17:29:50.953Z,97144.81
2023-04-23T17:32:52.889Z,97140.81
2023-04-23T17:35:57.535Z,97129.47
2023-04-23T17:39:00.918Z,97129.75
2023-04-23T17:42:03.113Z,97123.53
2023-04-23T17:45:06.006Z,97120.34
2023-04-23T17:48:07.780Z,97120.59
2023-04-23T17:51:09.770Z,97119.03
2023-04-23T17:54:12.746Z,97107.97
2023-04-23T17:57:14.526Z,97109.78
2023-04-23T18:00:17.513Z,97104.53
2023-04-23T18:03:20.576Z,97109.31
2023-04-23T18:06:22.888Z,97101.00
2023-04-23T18:09:25.907Z,97098.72
2023-04-23T18:12:28.818Z,97092.38
2023-04-23T18:15:32.301Z,97088.28
2023-04-23T18:18:33.838Z,97089.00
2023-04-23T18:21:35.466Z,97085.09
2023-04-23T18:24:38.534Z,97085.09
2023-04-23T18:27:40.087Z,97085.34
2023-04-23T18:30:41.792Z,97097.53
2023-04-23T18:33:49.143Z,97101.19
2023-04-23T18:36:54.405Z,97101.66
2023-04-23T18:40:00.707Z,97110.16
2023-04-23T18:43:02.762Z,97110.88
2023-04-23T18:46:04.347Z,97110.16
2023-04-23T18:49:06.898Z,97104.56
2023-04-23T18:52:08.559Z,97093.13
2023-04-23T18:55:11.848Z,97107.25
2023-04-23T18:58:13.411Z,97107.78
2023-04-23T19:01:15.356Z,97109.34
2023-04-23T19:04:17.451Z,97101.56
2023-04-23T19:07:19.410Z,97091.22
2023-04-23T19:10:22.534Z,97096.81
2023-04-23T19:13:24.627Z,97089.50
2023-04-23T19:16:26.856Z,97090.09
2023-04-23T19:19:31.896Z,97086.09
2023-04-23T19:22:33.751Z,97085.09
2023-04-23T19:25:37.141Z,97074.28
2023-04-23T19:28:39.101Z,97066.38
2023-04-23T19:31:41.066Z,97057.88
2023-04-23T19:34:43.348Z,97064.44
2023-04-23T19:37:45.270Z,97060.19
2023-04-23T19:40:48.662Z,97054.34
2023-04-23T19:43:51.029Z,97048.41
2023-04-23T19:46:52.920Z,97045.25
2023-04-23T19:49:56.708Z,97048.66
2023-04-23T19:52:58.692Z,97054.28
2023-04-23T19:56:01.661Z,97068.88
2023-04-23T19:59:03.501Z,97086.16
2023-04-23T20:02:05.138Z,97101.84
2023-04-23T20:05:08.284Z,97095.91
2023-04-23T20:08:15.394Z,97105.09
2023-04-23T20:11:18.996Z,97098.53
2023-04-23T20:14:20.793Z,97087.09
2023-04-23T20:17:22.508Z,97096.16
2023-04-23T20:20:25.741Z,97088.19
2023-04-23T20:23:27.438Z,97089.63
2023-04-23T20:26:30.543Z,97076.97
2023-04-23T20:29:32.182Z,97072.31
2023-04-23T20:32:34.307Z,97057.09
2023-04-23T20:35:35.967Z,97056.59
2023-04-23T20:38:38.060Z,97077.09
2023-04-23T20:41:41.572Z,97082.19
2023-04-23T20:44:45.448Z,97072.63
2023-04-23T20:47:48.462Z,97074.78
2023-04-23T20:50:51.468Z,97057.94
2023-04-23T20:53:53.101Z,97065.09
2023-04-23T20:56:56.816Z,97065.28
2023-04-23T20:59:58.530Z,97055.34
2023-04-23T21:03:03.596Z,97054.28
2023-04-23T21:06:07.804Z,97039.13
2023-04-23T21:09:11.484Z,97033.91
2023-04-23T21:12:14.753Z,97027.78
2023-04-23T21:15:17.238Z,97015.22
2023-04-23T21:18:19.201Z,97009.94
2023-04-23T21:21:26.942Z,97010.91
2023-04-23T21:24:28.891Z,97000.03
2023-04-23T21:27:32.175Z,97000.59
2023-04-23T21:30:39.044Z,96999.63
2023-04-23T21:33:40.749Z,97005.81
2023-04-23T21:36:44.734Z,97001.56
2023-04-23T21:39:46.346Z,97002.53
2023-04-23T21:42:50.397Z,97010.13
2023-04-23T21:45:52.098Z,97008.44
2023-04-23T21:48:54.238Z,97007.59
2023-04-23T21:51:56.462Z,96998.97
2023-04-23T21:54:59.331Z,97012.06
2023-04-23T21:58:16.518Z,97016.69
2023-04-23T22:01:20.373Z,97014.84
2023-04-23T22:04:22.703Z,97010.13
2023-04-23T22:07:29.641Z,96999.34
2023-04-23T22:10:32.997Z,97004.47
2023-04-23T22:13:36.447Z,96988.78
2023-04-23T22:16:39.685Z,96995.63
2023-04-23T22:19:42.006Z,96993.88
2023-04-23T22:22:43.910Z,96991.34
2023-04-23T22:25:45.525Z,96994.97
2023-04-23T22:28:48.670Z,96982.59
2023-04-23T22:31:50.395Z,96985.63
2023-04-23T22:34:52.837Z,96985.75
2023-04-23T22:37:54.690Z,96985.94
2023-04-23T22:40:57.520Z,96979.88
2023-04-23T22:44:00.873Z,96983.50
2023-04-23T22:47:02.419Z,96981.81
2023-04-23T22:50:04.480Z,96985.44
2023-04-23T22:53:06.829Z,96983.09
2023-04-23T22:56:08.535Z,96985.28
2023-04-23T22:59:13.647Z,96991.69
2023-04-23T23:02:15.675Z,96989.88
2023-04-23T23:05:17.421Z,96988.59
2023-04-23T23:08:19.070Z,96996.09
2023-04-23T23:11:21.401Z,96996.19
2023-04-23T23:14:24.328Z,96997.28
2023-04-23T23:17:26.457Z,96993.13
2023-04-23T23:20:28.100Z,96996.03
2023-04-23T23:23:29.746Z,96991.53
2023-04-23T23:26:31.366Z,96987.06
2023-04-23T23:29:34.288Z,96982.34
2023-04-23T23:32:36.682Z,96982.97
2023-04-23T23:35:38.348Z,96972.09
2023-04-23T23:38:40.203Z,96973.91
2023-04-23T23:41:41.759Z,96977.94
2023-04-23T23:44:44.728Z,96971.88
2023-04-23T23:47:46.600Z,96974.66
2023-04-23T23:50:48.279Z,96981.25
2023-04-23T23:53:49.937Z,96975.63
2023-04-23T23:56:51.958Z,96981.19
2023-04-23T23:59:54.969Z,96983.63
